sensor_id;sensor_type;location;lat;lon;timestamp;temperature;humidity
5461;DHT22;2753;49.196;8.286;2022-11-20T00:01:28;4.80;99.90
5461;DHT22;2753;49.196;8.286;2022-11-20T00:03:55;4.80;99.90
5461;DHT22;2753;49.196;8.286;2022-11-20T00:06:22;4.80;99.90
5461;DHT22;2753;49.196;8.286;2022-11-20T00:08:49;4.80;99.90
5461;DHT22;2753;49.196;8.286;2022-11-20T00:11:20;4.80;99.90
5461;DHT22;2753;49.196;8.286;2022-11-20T00:13:48;5.40;99.90
5461;DHT22;2753;49.196;8.286;2022-11-20T00:16:16;4.80;99.90
5461;DHT22;2753;49.196;8.286;2022-11-20T00:18:44;4.80;99.90
5461;DHT22;2753;49.196;8.286;2022-11-20T00:21:18;4.70;99.90
5461;DHT22;2753;49.196;8.286;2022-11-20T00:23:45;4.80;99.90
5461;DHT22;2753;49.196;8.286;2022-11-20T00:26:13;4.80;99.90
5461;DHT22;2753;49.196;8.286;2022-11-20T00:28:39;4.80;99.90
5461;DHT22;2753;49.196;8.286;2022-11-20T00:31:12;4.80;99.90
5461;DHT22;2753;49.196;8.286;2022-11-20T00:33:39;4.80;99.90
5461;DHT22;2753;49.196;8.286;2022-11-20T00:36:07;4.80;99.90
5461;DHT22;2753;49.196;8.286;2022-11-20T00:38:33;4.80;99.90
5461;DHT22;2753;49.196;8.286;2022-11-20T00:41:01;4.80;99.90
5461;DHT22;2753;49.196;8.286;2022-11-20T00:43:31;4.80;99.90
5461;DHT22;2753;49.196;8.286;2022-11-20T00:45:58;4.70;99.90
5461;DHT22;2753;49.196;8.286;2022-11-20T00:48:26;4.70;99.90
5461;DHT22;2753;49.196;8.286;2022-11-20T00:50:52;4.60;99.90
5461;DHT22;2753;49.196;8.286;2022-11-20T00:53:18;4.60;99.90
5461;DHT22;2753;49.196;8.286;2022-11-20T00:55:52;4.60;99.90
5461;DHT22;2753;49.196;8.286;2022-11-20T00:58:18;4.60;99.90
5461;DHT22;2753;49.196;8.286;2022-11-20T01:00:44;4.60;99.90
5461;DHT22;2753;49.196;8.286;2022-11-20T01:03:09;4.60;99.90
5461;DHT22;2753;49.196;8.286;2022-11-20T01:05:35;4.60;99.90
5461;DHT22;2753;49.196;8.286;2022-11-20T01:08:01;4.70;99.90
5461;DHT22;2753;49.196;8.286;2022-11-20T01:10:27;4.60;99.90
5461;DHT22;2753;49.196;8.286;2022-11-20T01:12:52;4.60;99.90
5461;DHT22;2753;49.196;8.286;2022-11-20T01:15:38;4.60;99.90
5461;DHT22;2753;49.196;8.286;2022-11-20T01:18:04;4.60;99.90
5461;DHT22;2753;49.196;8.286;2022-11-20T01:20:34;4.60;99.90
5461;DHT22;2753;49.196;8.286;2022-11-20T01:22:59;4.60;99.90
5461;DHT22;2753;49.196;8.286;2022-11-20T01:25:25;4.60;99.90
5461;DHT22;2753;49.196;8.286;2022-11-20T01:27:51;4.70;99.90
5461;DHT22;2753;49.196;8.286;2022-11-20T01:30:16;4.70;99.90
5461;DHT22;2753;49.196;8.286;2022-11-20T01:32:42;4.70;99.90
5461;DHT22;2753;49.196;8.286;2022-11-20T01:35:08;4.70;99.90
5461;DHT22;2753;49.196;8.286;2022-11-20T01:37:35;4.70;99.90
5461;DHT22;2753;49.196;8.286;2022-11-20T01:40:01;4.80;99.90
5461;DHT22;2753;49.196;8.286;2022-11-20T01:42:27;4.70;99.90
5461;DHT22;2753;49.196;8.286;2022-11-20T01:48:14;4.70;99.90
5461;DHT22;2753;49.196;8.286;2022-11-20T01:50:40;4.80;99.90
5461;DHT22;2753;49.196;8.286;2022-11-20T01:53:14;4.80;99.90
5461;DHT22;2753;49.196;8.286;2022-11-20T01:56:00;4.80;99.90
5461;DHT22;2753;49.196;8.286;2022-11-20T01:58:33;4.80;99.90
5461;DHT22;2753;49.196;8.286;2022-11-20T02:01:01;4.70;99.90
5461;DHT22;2753;49.196;8.286;2022-11-20T02:03:27;4.70;99.90
5461;DHT22;2753;49.196;8.286;2022-11-20T02:06:23;4.80;99.90
5461;DHT22;2753;49.196;8.286;2022-11-20T02:08:50;4.70;99.90
5461;DHT22;2753;49.196;8.286;2022-11-20T02:11:15;4.70;99.90
5461;DHT22;2753;49.196;8.286;2022-11-20T02:13:41;4.80;99.90
5461;DHT22;2753;49.196;8.286;2022-11-20T02:16:21;4.70;99.90
5461;DHT22;2753;49.196;8.286;2022-11-20T02:18:49;4.70;99.90
5461;DHT22;2753;49.196;8.286;2022-11-20T02:26:29;4.80;99.90
5461;DHT22;2753;49.196;8.286;2022-11-20T02:28:55;4.70;99.90
5461;DHT22;2753;49.196;8.286;2022-11-20T02:31:22;4.70;99.90
5461;DHT22;2753;49.196;8.286;2022-11-20T02:33:47;4.80;99.90
5461;DHT22;2753;49.196;8.286;2022-11-20T02:36:15;4.80;99.90
5461;DHT22;2753;49.196;8.286;2022-11-20T02:38:52;4.80;99.90
5461;DHT22;2753;49.196;8.286;2022-11-20T02:41:18;4.80;99.90
5461;DHT22;2753;49.196;8.286;2022-11-20T02:43:43;4.80;99.90
5461;DHT22;2753;49.196;8.286;2022-11-20T02:46:09;4.80;99.90
5461;DHT22;2753;49.196;8.286;2022-11-20T02:48:35;4.70;99.90
5461;DHT22;2753;49.196;8.286;2022-11-20T02:51:01;4.70;99.90
5461;DHT22;2753;49.196;8.286;2022-11-20T02:53:27;4.70;99.90
5461;DHT22;2753;49.196;8.286;2022-11-20T02:55:52;4.80;99.90
5461;DHT22;2753;49.196;8.286;2022-11-20T02:58:18;4.80;99.90
5461;DHT22;2753;49.196;8.286;2022-11-20T03:00:44;4.80;99.90
5461;DHT22;2753;49.196;8.286;2022-11-20T03:03:10;4.80;99.90
5461;DHT22;2753;49.196;8.286;2022-11-20T03:05:35;4.80;99.90
5461;DHT22;2753;49.196;8.286;2022-11-20T03:08:01;4.80;99.90
5461;DHT22;2753;49.196;8.286;2022-11-20T03:10:27;4.80;99.90
5461;DHT22;2753;49.196;8.286;2022-11-20T03:12:54;4.70;99.90
5461;DHT22;2753;49.196;8.286;2022-11-20T03:18:43;4.80;99.90
5461;DHT22;2753;49.196;8.286;2022-11-20T03:21:10;4.80;99.90
5461;DHT22;2753;49.196;8.286;2022-11-20T03:23:37;4.80;99.90
5461;DHT22;2753;49.196;8.286;2022-11-20T03:26:10;4.80;99.90
5461;DHT22;2753;49.196;8.286;2022-11-20T03:28:36;4.80;99.90
5461;DHT22;2753;49.196;8.286;2022-11-20T03:31:11;4.80;99.90
5461;DHT22;2753;49.196;8.286;2022-11-20T03:33:37;4.80;99.90
5461;DHT22;2753;49.196;8.286;2022-11-20T03:36:05;4.80;99.90
5461;DHT22;2753;49.196;8.286;2022-11-20T03:38:31;4.80;99.90
5461;DHT22;2753;49.196;8.286;2022-11-20T03:41:03;4.80;99.90
5461;DHT22;2753;49.196;8.286;2022-11-20T03:43:29;4.80;99.90
5461;DHT22;2753;49.196;8.286;2022-11-20T03:45:55;4.80;99.90
5461;DHT22;2753;49.196;8.286;2022-11-20T03:48:21;4.80;99.90
5461;DHT22;2753;49.196;8.286;2022-11-20T03:50:47;4.80;99.90
5461;DHT22;2753;49.196;8.286;2022-11-20T03:53:14;4.80;99.90
5461;DHT22;2753;49.196;8.286;2022-11-20T03:55:39;4.80;99.90
5461;DHT22;2753;49.196;8.286;2022-11-20T03:58:05;4.80;99.90
5461;DHT22;2753;49.196;8.286;2022-11-20T04:00:31;4.80;99.90
5461;DHT22;2753;49.196;8.286;2022-11-20T04:03:00;4.80;99.90
5461;DHT22;2753;49.196;8.286;2022-11-20T04:05:26;4.80;99.90
5461;DHT22;2753;49.196;8.286;2022-11-20T04:07:52;4.80;99.90
5461;DHT22;2753;49.196;8.286;2022-11-20T04:12:51;4.80;99.90
5461;DHT22;2753;49.196;8.286;2022-11-20T04:15:17;4.80;99.90
5461;DHT22;2753;49.196;8.286;2022-11-20T04:17:43;4.80;99.90
5461;DHT22;2753;49.196;8.286;2022-11-20T04:20:09;4.90;99.90
5461;DHT22;2753;49.196;8.286;2022-11-20T04:22:35;4.80;99.90
5461;DHT22;2753;49.196;8.286;2022-11-20T04:25:00;4.80;99.90
5461;DHT22;2753;49.196;8.286;2022-11-20T04:27:26;4.90;99.90
5461;DHT22;2753;49.196;8.286;2022-11-20T04:29:52;4.90;99.90
5461;DHT22;2753;49.196;8.286;2022-11-20T04:32:17;4.90;99.90
5461;DHT22;2753;49.196;8.286;2022-11-20T04:34:43;4.90;99.90
5461;DHT22;2753;49.196;8.286;2022-11-20T04:37:09;4.90;99.90
5461;DHT22;2753;49.196;8.286;2022-11-20T04:39:34;4.90;99.90
5461;DHT22;2753;49.196;8.286;2022-11-20T04:42:00;4.90;99.90
5461;DHT22;2753;49.196;8.286;2022-11-20T04:44:44;4.90;99.90
5461;DHT22;2753;49.196;8.286;2022-11-20T04:47:09;4.90;99.90
5461;DHT22;2753;49.196;8.286;2022-11-20T04:49:35;4.90;99.90
5461;DHT22;2753;49.196;8.286;2022-11-20T04:52:01;5.00;99.90
5461;DHT22;2753;49.196;8.286;2022-11-20T04:54:26;5.00;99.90
5461;DHT22;2753;49.196;8.286;2022-11-20T04:56:52;5.00;99.90
5461;DHT22;2753;49.196;8.286;2022-11-20T04:59:18;5.10;99.90
5461;DHT22;2753;49.196;8.286;2022-11-20T05:01:44;5.10;99.90
5461;DHT22;2753;49.196;8.286;2022-11-20T05:04:10;5.30;99.90
5461;DHT22;2753;49.196;8.286;2022-11-20T05:06:36;5.40;99.90
5461;DHT22;2753;49.196;8.286;2022-11-20T05:09:02;5.50;99.90
5461;DHT22;2753;49.196;8.286;2022-11-20T05:11:27;5.50;99.90
5461;DHT22;2753;49.196;8.286;2022-11-20T05:13:58;5.60;99.90
5461;DHT22;2753;49.196;8.286;2022-11-20T05:16:25;5.60;99.90
5461;DHT22;2753;49.196;8.286;2022-11-20T05:18:52;5.60;99.90
5461;DHT22;2753;49.196;8.286;2022-11-20T05:21:18;5.70;99.90
5461;DHT22;2753;49.196;8.286;2022-11-20T05:23:44;5.60;99.90
5461;DHT22;2753;49.196;8.286;2022-11-20T05:26:15;5.60;99.90
5461;DHT22;2753;49.196;8.286;2022-11-20T05:28:42;5.60;99.90
5461;DHT22;2753;49.196;8.286;2022-11-20T05:31:09;5.60;99.90
5461;DHT22;2753;49.196;8.286;2022-11-20T05:33:36;5.70;99.90
5461;DHT22;2753;49.196;8.286;2022-11-20T05:36:03;5.70;99.90
5461;DHT22;2753;49.196;8.286;2022-11-20T05:38:29;5.70;99.90
5461;DHT22;2753;49.196;8.286;2022-11-20T05:41:02;5.80;99.90
5461;DHT22;2753;49.196;8.286;2022-11-20T05:43:28;5.80;99.90
5461;DHT22;2753;49.196;8.286;2022-11-20T05:45:54;5.90;99.90
5461;DHT22;2753;49.196;8.286;2022-11-20T05:48:19;5.90;99.90
5461;DHT22;2753;49.196;8.286;2022-11-20T05:50:45;6.00;99.90
5461;DHT22;2753;49.196;8.286;2022-11-20T05:53:11;5.90;99.90
5461;DHT22;2753;49.196;8.286;2022-11-20T05:55:37;6.00;99.90
5461;DHT22;2753;49.196;8.286;2022-11-20T05:58:02;5.90;99.90
5461;DHT22;2753;49.196;8.286;2022-11-20T06:00:28;5.90;99.90
5461;DHT22;2753;49.196;8.286;2022-11-20T06:02:54;5.90;99.90
5461;DHT22;2753;49.196;8.286;2022-11-20T06:05:19;5.90;99.90
5461;DHT22;2753;49.196;8.286;2022-11-20T06:07:45;6.00;99.90
5461;DHT22;2753;49.196;8.286;2022-11-20T06:10:11;6.00;99.90
5461;DHT22;2753;49.196;8.286;2022-11-20T06:12:37;6.00;99.90
5461;DHT22;2753;49.196;8.286;2022-11-20T06:15:04;6.00;99.90
5461;DHT22;2753;49.196;8.286;2022-11-20T06:17:30;6.00;99.90
5461;DHT22;2753;49.196;8.286;2022-11-20T06:19:56;6.00;99.90
5461;DHT22;2753;49.196;8.286;2022-11-20T06:22:22;6.00;99.90
5461;DHT22;2753;49.196;8.286;2022-11-20T06:24:47;6.00;99.90
5461;DHT22;2753;49.196;8.286;2022-11-20T06:27:13;6.10;99.90
5461;DHT22;2753;49.196;8.286;2022-11-20T06:29:39;6.10;99.90
5461;DHT22;2753;49.196;8.286;2022-11-20T06:32:05;6.10;99.90
5461;DHT22;2753;49.196;8.286;2022-11-20T06:34:30;6.10;99.90
5461;DHT22;2753;49.196;8.286;2022-11-20T06:36:56;6.10;99.90
5461;DHT22;2753;49.196;8.286;2022-11-20T06:39:21;6.10;99.90
5461;DHT22;2753;49.196;8.286;2022-11-20T06:41:47;6.20;99.90
5461;DHT22;2753;49.196;8.286;2022-11-20T06:44:13;6.20;99.90
5461;DHT22;2753;49.196;8.286;2022-11-20T06:46:38;6.20;99.90
5461;DHT22;2753;49.196;8.286;2022-11-20T06:49:04;6.30;99.90
5461;DHT22;2753;49.196;8.286;2022-11-20T06:51:30;6.20;99.90
5461;DHT22;2753;49.196;8.286;2022-11-20T06:53:55;6.20;99.90
5461;DHT22;2753;49.196;8.286;2022-11-20T06:56:21;6.30;99.90
5461;DHT22;2753;49.196;8.286;2022-11-20T06:58:47;6.20;99.90
5461;DHT22;2753;49.196;8.286;2022-11-20T07:01:14;6.30;99.90
5461;DHT22;2753;49.196;8.286;2022-11-20T07:03:40;6.30;99.90
5461;DHT22;2753;49.196;8.286;2022-11-20T07:06:07;6.30;99.90
5461;DHT22;2753;49.196;8.286;2022-11-20T07:08:33;6.30;99.90
5461;DHT22;2753;49.196;8.286;2022-11-20T07:11:01;6.40;99.90
5461;DHT22;2753;49.196;8.286;2022-11-20T07:13:28;6.30;99.90
5461;DHT22;2753;49.196;8.286;2022-11-20T07:15:54;6.30;99.90
5461;DHT22;2753;49.196;8.286;2022-11-20T07:18:20;6.30;99.90
5461;DHT22;2753;49.196;8.286;2022-11-20T07:20:46;6.30;99.90
5461;DHT22;2753;49.196;8.286;2022-11-20T07:23:12;6.40;99.90
5461;DHT22;2753;49.196;8.286;2022-11-20T07:25:37;6.40;99.90
5461;DHT22;2753;49.196;8.286;2022-11-20T07:28:03;6.40;99.90
5461;DHT22;2753;49.196;8.286;2022-11-20T07:30:30;6.40;99.90
5461;DHT22;2753;49.196;8.286;2022-11-20T07:32:56;6.40;99.90
5461;DHT22;2753;49.196;8.286;2022-11-20T07:35:23;6.40;99.90
5461;DHT22;2753;49.196;8.286;2022-11-20T07:37:49;6.40;99.90
5461;DHT22;2753;49.196;8.286;2022-11-20T07:40:16;6.50;99.90
5461;DHT22;2753;49.196;8.286;2022-11-20T07:42:52;6.50;99.90
5461;DHT22;2753;49.196;8.286;2022-11-20T07:45:19;6.50;99.90
5461;DHT22;2753;49.196;8.286;2022-11-20T07:47:45;6.50;99.90
5461;DHT22;2753;49.196;8.286;2022-11-20T07:50:12;6.50;99.90
5461;DHT22;2753;49.196;8.286;2022-11-20T07:52:39;6.50;99.90
5461;DHT22;2753;49.196;8.286;2022-11-20T07:55:06;6.50;99.90
5461;DHT22;2753;49.196;8.286;2022-11-20T07:57:32;6.50;99.90
5461;DHT22;2753;49.196;8.286;2022-11-20T07:59:58;6.50;99.90
5461;DHT22;2753;49.196;8.286;2022-11-20T08:02:24;6.50;99.90
5461;DHT22;2753;49.196;8.286;2022-11-20T08:04:59;6.50;99.90
5461;DHT22;2753;49.196;8.286;2022-11-20T08:07:24;6.60;99.90
5461;DHT22;2753;49.196;8.286;2022-11-20T08:09:50;6.60;99.90
5461;DHT22;2753;49.196;8.286;2022-11-20T08:12:25;6.60;99.90
5461;DHT22;2753;49.196;8.286;2022-11-20T08:15:10;6.60;99.90
5461;DHT22;2753;49.196;8.286;2022-11-20T08:17:36;6.60;99.90
5461;DHT22;2753;49.196;8.286;2022-11-20T08:20:02;6.60;99.90
5461;DHT22;2753;49.196;8.286;2022-11-20T08:22:31;6.60;99.90
5461;DHT22;2753;49.196;8.286;2022-11-20T08:24:57;6.60;99.90
5461;DHT22;2753;49.196;8.286;2022-11-20T08:27:23;6.60;99.90
5461;DHT22;2753;49.196;8.286;2022-11-20T08:29:48;6.70;99.90
5461;DHT22;2753;49.196;8.286;2022-11-20T08:32:14;6.70;99.90
5461;DHT22;2753;49.196;8.286;2022-11-20T08:34:40;6.70;99.90
5461;DHT22;2753;49.196;8.286;2022-11-20T08:37:05;6.70;99.90
5461;DHT22;2753;49.196;8.286;2022-11-20T08:39:31;6.70;99.90
5461;DHT22;2753;49.196;8.286;2022-11-20T08:41:57;6.70;99.90
5461;DHT22;2753;49.196;8.286;2022-11-20T08:44:23;6.70;99.90
5461;DHT22;2753;49.196;8.286;2022-11-20T08:46:49;6.70;99.90
5461;DHT22;2753;49.196;8.286;2022-11-20T08:49:14;6.80;99.90
5461;DHT22;2753;49.196;8.286;2022-11-20T08:51:41;6.80;99.90
5461;DHT22;2753;49.196;8.286;2022-11-20T08:54:07;6.80;99.90
5461;DHT22;2753;49.196;8.286;2022-11-20T08:56:33;6.80;99.90
5461;DHT22;2753;49.196;8.286;2022-11-20T08:58:59;6.80;99.90
5461;DHT22;2753;49.196;8.286;2022-11-20T09:01:25;6.90;99.90
5461;DHT22;2753;49.196;8.286;2022-11-20T09:03:51;6.90;99.90
5461;DHT22;2753;49.196;8.286;2022-11-20T09:06:18;6.90;99.90
5461;DHT22;2753;49.196;8.286;2022-11-20T09:08:44;6.90;99.90
5461;DHT22;2753;49.196;8.286;2022-11-20T09:11:10;6.90;99.90
5461;DHT22;2753;49.196;8.286;2022-11-20T09:13:36;6.90;99.90
5461;DHT22;2753;49.196;8.286;2022-11-20T09:16:05;7.00;99.90
5461;DHT22;2753;49.196;8.286;2022-11-20T09:18:31;7.00;99.90
5461;DHT22;2753;49.196;8.286;2022-11-20T09:20:59;7.00;99.90
5461;DHT22;2753;49.196;8.286;2022-11-20T09:23:25;7.10;99.90
5461;DHT22;2753;49.196;8.286;2022-11-20T09:25:52;7.10;99.90
5461;DHT22;2753;49.196;8.286;2022-11-20T09:28:18;7.10;99.90
5461;DHT22;2753;49.196;8.286;2022-11-20T09:30:44;7.20;99.90
5461;DHT22;2753;49.196;8.286;2022-11-20T09:33:10;7.20;99.90
5461;DHT22;2753;49.196;8.286;2022-11-20T09:35:36;7.20;99.90
5461;DHT22;2753;49.196;8.286;2022-11-20T09:38:08;7.30;99.90
5461;DHT22;2753;49.196;8.286;2022-11-20T09:40:35;7.30;99.90
5461;DHT22;2753;49.196;8.286;2022-11-20T09:54:04;7.40;99.90
5461;DHT22;2753;49.196;8.286;2022-11-20T09:56:34;7.40;99.90
5461;DHT22;2753;49.196;8.286;2022-11-20T09:59:04;7.40;99.90
5461;DHT22;2753;49.196;8.286;2022-11-20T10:01:34;7.40;99.90
5461;DHT22;2753;49.196;8.286;2022-11-20T10:04:04;7.30;99.90
5461;DHT22;2753;49.196;8.286;2022-11-20T10:06:39;7.40;99.90
5461;DHT22;2753;49.196;8.286;2022-11-20T10:11:51;7.40;99.90
5461;DHT22;2753;49.196;8.286;2022-11-20T10:32:45;7.60;99.90
5461;DHT22;2753;49.196;8.286;2022-11-20T10:35:26;7.70;99.90
5461;DHT22;2753;49.196;8.286;2022-11-20T10:37:59;7.70;99.90
5461;DHT22;2753;49.196;8.286;2022-11-20T10:41:11;7.80;99.90
5461;DHT22;2753;49.196;8.286;2022-11-20T10:43:44;7.90;99.90
5461;DHT22;2753;49.196;8.286;2022-11-20T10:46:19;7.90;99.90
5461;DHT22;2753;49.196;8.286;2022-11-20T10:48:47;8.00;99.90
5461;DHT22;2753;49.196;8.286;2022-11-20T10:51:40;8.10;99.90
5461;DHT22;2753;49.196;8.286;2022-11-20T10:57:06;8.40;99.90
5461;DHT22;2753;49.196;8.286;2022-11-20T11:02:32;8.50;99.90
5461;DHT22;2753;49.196;8.286;2022-11-20T11:07:55;8.70;99.90
5461;DHT22;2753;49.196;8.286;2022-11-20T11:10:44;8.80;99.90
5461;DHT22;2753;49.196;8.286;2022-11-20T11:13:26;8.90;99.90
5461;DHT22;2753;49.196;8.286;2022-11-20T11:15:53;9.10;99.90
5461;DHT22;2753;49.196;8.286;2022-11-20T11:18:30;9.20;99.90
5461;DHT22;2753;49.196;8.286;2022-11-20T11:31:29;9.40;99.90
5461;DHT22;2753;49.196;8.286;2022-11-20T11:34:16;9.40;99.90
5461;DHT22;2753;49.196;8.286;2022-11-20T11:36:49;9.50;99.90
5461;DHT22;2753;49.196;8.286;2022-11-20T11:39:31;9.50;99.90
5461;DHT22;2753;49.196;8.286;2022-11-20T11:55:02;9.50;99.90
5461;DHT22;2753;49.196;8.286;2022-11-20T11:57:40;9.50;99.90
5461;DHT22;2753;49.196;8.286;2022-11-20T12:00:10;9.50;99.90
5461;DHT22;2753;49.196;8.286;2022-11-20T12:07:51;9.90;99.90
5461;DHT22;2753;49.196;8.286;2022-11-20T12:10:35;10.00;99.90
5461;DHT22;2753;49.196;8.286;2022-11-20T12:15:53;10.20;99.90
5461;DHT22;2753;49.196;8.286;2022-11-20T12:18:21;10.30;99.90
5461;DHT22;2753;49.196;8.286;2022-11-20T12:23:53;10.50;99.90
5461;DHT22;2753;49.196;8.286;2022-11-20T12:38:15;11.00;99.90
5461;DHT22;2753;49.196;8.286;2022-11-20T12:44:03;10.60;99.90
5461;DHT22;2753;49.196;8.286;2022-11-20T12:47:01;10.80;99.90
5461;DHT22;2753;49.196;8.286;2022-11-20T12:49:52;11.00;99.90
5461;DHT22;2753;49.196;8.286;2022-11-20T12:52:37;11.40;99.90
5461;DHT22;2753;49.196;8.286;2022-11-20T13:07:52;10.70;99.90
5461;DHT22;2753;49.196;8.286;2022-11-20T13:15:56;10.50;99.90
5461;DHT22;2753;49.196;8.286;2022-11-20T13:18:25;10.50;99.90
5461;DHT22;2753;49.196;8.286;2022-11-20T13:20:51;10.40;99.90
5461;DHT22;2753;49.196;8.286;2022-11-20T13:23:27;10.30;99.90
5461;DHT22;2753;49.196;8.286;2022-11-20T13:26:04;10.20;99.90
5461;DHT22;2753;49.196;8.286;2022-11-20T13:28:31;10.20;99.90
5461;DHT22;2753;49.196;8.286;2022-11-20T13:30:58;10.10;99.90
5461;DHT22;2753;49.196;8.286;2022-11-20T13:36:04;10.10;99.90
5461;DHT22;2753;49.196;8.286;2022-11-20T13:38:49;10.10;99.90
5461;DHT22;2753;49.196;8.286;2022-11-20T13:44:28;10.10;99.90
5461;DHT22;2753;49.196;8.286;2022-11-20T13:46:54;10.10;99.90
5461;DHT22;2753;49.196;8.286;2022-11-20T13:49:40;10.10;99.90
5461;DHT22;2753;49.196;8.286;2022-11-20T13:55:00;10.00;99.90
5461;DHT22;2753;49.196;8.286;2022-11-20T13:57:32;10.00;99.90
5461;DHT22;2753;49.196;8.286;2022-11-20T14:00:16;10.00;99.90
5461;DHT22;2753;49.196;8.286;2022-11-20T14:02:44;9.90;99.90
5461;DHT22;2753;49.196;8.286;2022-11-20T14:05:23;9.90;99.90
5461;DHT22;2753;49.196;8.286;2022-11-20T14:07:51;9.90;99.90
5461;DHT22;2753;49.196;8.286;2022-11-20T14:10:22;9.80;99.90
5461;DHT22;2753;49.196;8.286;2022-11-20T14:12:48;9.70;99.90
5461;DHT22;2753;49.196;8.286;2022-11-20T14:15:26;9.70;99.90
5461;DHT22;2753;49.196;8.286;2022-11-20T14:17:52;9.70;99.90
5461;DHT22;2753;49.196;8.286;2022-11-20T14:20:18;9.60;99.90
5461;DHT22;2753;49.196;8.286;2022-11-20T14:22:52;9.60;99.90
5461;DHT22;2753;49.196;8.286;2022-11-20T14:25:21;9.50;99.90
5461;DHT22;2753;49.196;8.286;2022-11-20T14:27:55;9.50;99.90
5461;DHT22;2753;49.196;8.286;2022-11-20T14:33:09;9.50;99.90
5461;DHT22;2753;49.196;8.286;2022-11-20T14:35:44;9.50;99.90
5461;DHT22;2753;49.196;8.286;2022-11-20T14:38:13;9.40;99.90
5461;DHT22;2753;49.196;8.286;2022-11-20T14:40:40;9.40;99.90
5461;DHT22;2753;49.196;8.286;2022-11-20T14:43:22;9.30;99.90
5461;DHT22;2753;49.196;8.286;2022-11-20T14:46:09;9.30;99.90
5461;DHT22;2753;49.196;8.286;2022-11-20T14:48:45;9.30;99.90
5461;DHT22;2753;49.196;8.286;2022-11-20T14:51:23;9.20;99.90
5461;DHT22;2753;49.196;8.286;2022-11-20T14:53:51;9.20;99.90
5461;DHT22;2753;49.196;8.286;2022-11-20T14:56:24;9.20;99.90
5461;DHT22;2753;49.196;8.286;2022-11-20T14:58:59;9.20;99.90
5461;DHT22;2753;49.196;8.286;2022-11-20T15:01:27;9.10;99.90
5461;DHT22;2753;49.196;8.286;2022-11-20T15:04:09;9.10;99.90
5461;DHT22;2753;49.196;8.286;2022-11-20T15:06:35;9.00;99.90
5461;DHT22;2753;49.196;8.286;2022-11-20T15:09:03;9.00;99.90
5461;DHT22;2753;49.196;8.286;2022-11-20T15:11:33;9.00;99.90
5461;DHT22;2753;49.196;8.286;2022-11-20T15:14:05;9.00;99.90
5461;DHT22;2753;49.196;8.286;2022-11-20T15:16:32;8.90;99.90
5461;DHT22;2753;49.196;8.286;2022-11-20T15:18:57;8.90;99.90
5461;DHT22;2753;49.196;8.286;2022-11-20T15:21:24;8.90;99.90
5461;DHT22;2753;49.196;8.286;2022-11-20T15:23:50;8.90;99.90
5461;DHT22;2753;49.196;8.286;2022-11-20T15:26:24;8.90;99.90
5461;DHT22;2753;49.196;8.286;2022-11-20T15:28:51;8.90;99.90
5461;DHT22;2753;49.196;8.286;2022-11-20T15:31:20;8.90;99.90
5461;DHT22;2753;49.196;8.286;2022-11-20T15:33:46;8.80;99.90
5461;DHT22;2753;49.196;8.286;2022-11-20T15:36:12;8.80;99.90
5461;DHT22;2753;49.196;8.286;2022-11-20T15:38:38;8.80;99.90
5461;DHT22;2753;49.196;8.286;2022-11-20T15:41:04;8.80;99.90
5461;DHT22;2753;49.196;8.286;2022-11-20T15:43:30;8.80;99.90
5461;DHT22;2753;49.196;8.286;2022-11-20T15:46:03;8.70;99.90
5461;DHT22;2753;49.196;8.286;2022-11-20T15:48:35;8.70;99.90
5461;DHT22;2753;49.196;8.286;2022-11-20T15:51:14;8.60;99.90
5461;DHT22;2753;49.196;8.286;2022-11-20T15:53:43;8.60;99.90
5461;DHT22;2753;49.196;8.286;2022-11-20T15:56:11;8.60;99.90
5461;DHT22;2753;49.196;8.286;2022-11-20T15:58:37;8.60;99.90
5461;DHT22;2753;49.196;8.286;2022-11-20T16:01:03;8.50;99.90
5461;DHT22;2753;49.196;8.286;2022-11-20T16:03:29;8.50;99.90
5461;DHT22;2753;49.196;8.286;2022-11-20T16:05:55;8.50;99.90
5461;DHT22;2753;49.196;8.286;2022-11-20T16:08:21;8.50;99.90
5461;DHT22;2753;49.196;8.286;2022-11-20T16:10:46;8.50;99.90
5461;DHT22;2753;49.196;8.286;2022-11-20T16:13:14;8.50;99.90
5461;DHT22;2753;49.196;8.286;2022-11-20T16:16:02;8.40;99.90
5461;DHT22;2753;49.196;8.286;2022-11-20T16:18:30;8.40;99.90
5461;DHT22;2753;49.196;8.286;2022-11-20T16:20:56;8.40;99.90
5461;DHT22;2753;49.196;8.286;2022-11-20T16:23:25;8.40;99.90
5461;DHT22;2753;49.196;8.286;2022-11-20T16:25:55;8.40;99.90
5461;DHT22;2753;49.196;8.286;2022-11-20T16:28:24;8.40;99.90
5461;DHT22;2753;49.196;8.286;2022-11-20T16:30:50;8.40;99.90
5461;DHT22;2753;49.196;8.286;2022-11-20T16:33:17;8.40;99.90
5461;DHT22;2753;49.196;8.286;2022-11-20T16:35:43;8.30;99.90
5461;DHT22;2753;49.196;8.286;2022-11-20T16:38:09;8.30;99.90
5461;DHT22;2753;49.196;8.286;2022-11-20T16:40:35;8.30;99.90
5461;DHT22;2753;49.196;8.286;2022-11-20T16:43:11;8.30;99.90
5461;DHT22;2753;49.196;8.286;2022-11-20T16:45:43;8.30;99.90
5461;DHT22;2753;49.196;8.286;2022-11-20T16:48:14;8.30;99.90
5461;DHT22;2753;49.196;8.286;2022-11-20T16:50:51;8.30;99.90
5461;DHT22;2753;49.196;8.286;2022-11-20T16:53:18;8.30;99.90
5461;DHT22;2753;49.196;8.286;2022-11-20T16:55:44;8.20;99.90
5461;DHT22;2753;49.196;8.286;2022-11-20T16:58:10;8.20;99.90
5461;DHT22;2753;49.196;8.286;2022-11-20T17:00:39;8.20;99.90
5461;DHT22;2753;49.196;8.286;2022-11-20T17:03:05;8.30;99.90
5461;DHT22;2753;49.196;8.286;2022-11-20T17:05:33;8.20;99.90
5461;DHT22;2753;49.196;8.286;2022-11-20T17:07:59;8.20;99.90
5461;DHT22;2753;49.196;8.286;2022-11-20T17:10:25;8.20;99.90
5461;DHT22;2753;49.196;8.286;2022-11-20T17:12:51;8.20;99.90
5461;DHT22;2753;49.196;8.286;2022-11-20T17:15:17;8.20;99.90
5461;DHT22;2753;49.196;8.286;2022-11-20T17:17:42;8.10;99.90
5461;DHT22;2753;49.196;8.286;2022-11-20T17:20:09;8.10;99.90
5461;DHT22;2753;49.196;8.286;2022-11-20T17:22:37;8.10;99.90
5461;DHT22;2753;49.196;8.286;2022-11-20T17:25:03;8.10;99.90
5461;DHT22;2753;49.196;8.286;2022-11-20T17:27:29;8.10;99.90
5461;DHT22;2753;49.196;8.286;2022-11-20T17:29:54;8.10;99.90
5461;DHT22;2753;49.196;8.286;2022-11-20T17:32:22;8.10;99.90
5461;DHT22;2753;49.196;8.286;2022-11-20T17:34:47;8.10;99.90
5461;DHT22;2753;49.196;8.286;2022-11-20T17:37:13;8.00;99.90
5461;DHT22;2753;49.196;8.286;2022-11-20T17:39:39;8.00;99.90
5461;DHT22;2753;49.196;8.286;2022-11-20T17:44:40;8.00;99.90
5461;DHT22;2753;49.196;8.286;2022-11-20T17:47:07;8.00;99.90
5461;DHT22;2753;49.196;8.286;2022-11-20T17:49:33;8.00;99.90
5461;DHT22;2753;49.196;8.286;2022-11-20T17:51:58;8.00;99.90
5461;DHT22;2753;49.196;8.286;2022-11-20T17:54:24;8.00;99.90
5461;DHT22;2753;49.196;8.286;2022-11-20T17:56:50;8.00;99.90
5461;DHT22;2753;49.196;8.286;2022-11-20T17:59:34;8.00;99.90
5461;DHT22;2753;49.196;8.286;2022-11-20T18:02:00;8.00;99.90
5461;DHT22;2753;49.196;8.286;2022-11-20T18:04:26;8.00;99.90
5461;DHT22;2753;49.196;8.286;2022-11-20T18:06:51;8.00;99.90
5461;DHT22;2753;49.196;8.286;2022-11-20T18:09:17;8.00;99.90
5461;DHT22;2753;49.196;8.286;2022-11-20T18:11:43;8.00;99.90
5461;DHT22;2753;49.196;8.286;2022-11-20T18:14:14;7.90;99.90
5461;DHT22;2753;49.196;8.286;2022-11-20T18:17:05;7.90;99.90
5461;DHT22;2753;49.196;8.286;2022-11-20T18:19:43;7.90;99.90
5461;DHT22;2753;49.196;8.286;2022-11-20T18:22:09;7.80;99.90
5461;DHT22;2753;49.196;8.286;2022-11-20T18:24:35;7.70;99.90
5461;DHT22;2753;49.196;8.286;2022-11-20T18:27:02;7.70;99.90
5461;DHT22;2753;49.196;8.286;2022-11-20T18:29:29;7.70;99.90
5461;DHT22;2753;49.196;8.286;2022-11-20T18:31:55;7.70;99.90
5461;DHT22;2753;49.196;8.286;2022-11-20T18:34:22;7.60;99.90
5461;DHT22;2753;49.196;8.286;2022-11-20T18:36:48;7.60;99.90
5461;DHT22;2753;49.196;8.286;2022-11-20T18:39:14;7.50;99.90
5461;DHT22;2753;49.196;8.286;2022-11-20T18:41:41;7.60;99.90
5461;DHT22;2753;49.196;8.286;2022-11-20T18:44:28;7.60;99.90